Climatologie pour Saint-Brevin les Pins
Jour • Résumé pour avril 20, 2017 Système :  Métrique    Anglais   Mixte
« - 1 jour
+ 1 jour »
Jour Semaine Mois Année Personnalisé
  Maximum : Minimum : Moyenne :
Température sous abri : 15.2 °C 1.5 °C 8.6 °C
Point de rosée : 1.7 °C -2.3 °C -0.3 °C
Humidité : 77 % 35 % 56 %
Vitesse du vent : 25.7 km/h 0.0 km/h 7.8 km/h
Rafale : 33.8 km/h - -
Direction :- - East
Pression : 1035.1 hPa 1031.4 hPa -
Précipitations : 0.0 mm    
Historical Graphs
 
 
Tableau de données pour avril 20, 2017
Heure Tempé Pt rosée Pression Vent Vitesse Rafale Humidité Taux pluie (/hr) Soleil
00:00 7.3 °C 0.3 °C 1032.7 hPa ENE 4.8 km/h 17.7 km/h 61 % 0.0 mm 0 W/m2
00:10 7.3 °C 0.2 °C 1033.1 hPa ENE 11.3 km/h 17.7 km/h 61 % 0.0 mm 0 W/m2
00:15 7.3 °C 0.3 °C 1033.1 hPa ENE 4.8 km/h 20.9 km/h 61 % 0.0 mm 0 W/m2
00:20 7.3 °C 0.2 °C 1033.1 hPa ENE 3.2 km/h 20.9 km/h 61 % 0.0 mm 0 W/m2
00:25 7.1 °C 0.0 °C 1033.1 hPa ENE 4.8 km/h 12.9 km/h 61 % 0.0 mm 0 W/m2
00:30 7.2 °C 0.1 °C 1033.1 hPa ENE 6.4 km/h 14.5 km/h 61 % 0.0 mm 0 W/m2
00:35 7.1 °C 0.1 °C 1033.4 hPa NE 8.0 km/h 17.7 km/h 61 % 0.0 mm 0 W/m2
00:40 7.0 °C 0.0 °C 1033.4 hPa ENE 6.4 km/h 17.7 km/h 61 % 0.0 mm 0 W/m2
00:45 6.7 °C 0.1 °C 1033.4 hPa NE 8.0 km/h 14.5 km/h 63 % 0.0 mm 0 W/m2
00:50 6.5 °C 0.2 °C 1033.4 hPa NE 8.0 km/h 16.1 km/h 64 % 0.0 mm 0 W/m2
00:55 6.4 °C 0.3 °C 1033.4 hPa NE 4.8 km/h 16.1 km/h 65 % 0.0 mm 0 W/m2
01:00 6.4 °C 0.3 °C 1033.4 hPa ENE 11.3 km/h 17.7 km/h 65 % 0.0 mm 0 W/m2
01:05 6.3 °C 0.2 °C 1033.4 hPa NE 9.7 km/h 17.7 km/h 65 % 0.0 mm 0 W/m2
01:10 6.2 °C 0.3 °C 1033.4 hPa ENE 8.0 km/h 14.5 km/h 66 % 0.0 mm 0 W/m2
01:15 6.2 °C 0.3 °C 1033.4 hPa East 4.8 km/h 14.5 km/h 66 % 0.0 mm 0 W/m2
01:20 6.1 °C 0.2 °C 1033.4 hPa NE 3.2 km/h 14.5 km/h 66 % 0.0 mm 0 W/m2
01:25 5.8 °C 0.2 °C 1033.4 hPa ENE 6.4 km/h 11.3 km/h 67 % 0.0 mm 0 W/m2
01:30 5.7 °C 0.3 °C 1033.7 hPa East 1.6 km/h 11.3 km/h 68 % 0.0 mm 0 W/m2
01:35 5.6 °C 0.2 °C 1033.7 hPa NE 4.8 km/h 14.5 km/h 68 % 0.0 mm 0 W/m2
01:40 5.4 °C 0.2 °C 1033.7 hPa ENE 3.2 km/h 14.5 km/h 69 % 0.0 mm 0 W/m2
01:45 5.3 °C -0.1 °C 1033.4 hPa ENE 1.6 km/h 11.3 km/h 68 % 0.0 mm 0 W/m2
01:50 5.2 °C -0.2 °C 1033.4 hPa ENE 4.8 km/h 9.7 km/h 68 % 0.0 mm 0 W/m2
01:55 4.8 °C -0.4 °C 1033.7 hPa Calm   8.0 km/h 69 % 0.0 mm 0 W/m2
02:00 4.7 °C -0.3 °C 1033.4 hPa East 4.8 km/h 11.3 km/h 70 % 0.0 mm 0 W/m2
02:05 4.7 °C -0.7 °C 1033.4 hPa East 3.2 km/h 12.9 km/h 68 % 0.0 mm 0 W/m2
02:10 4.9 °C -0.7 °C 1033.7 hPa Calm   12.9 km/h 67 % 0.0 mm 0 W/m2
02:15 4.7 °C -0.7 °C 1033.4 hPa ENE 1.6 km/h 9.7 km/h 68 % 0.0 mm 0 W/m2
02:20 4.3 °C -0.7 °C 1033.4 hPa ENE 1.6 km/h 9.7 km/h 70 % 0.0 mm 0 W/m2
02:25 4.1 °C -0.7 °C 1033.4 hPa Calm   9.7 km/h 71 % 0.0 mm 0 W/m2
02:30 4.1 °C -0.7 °C 1033.4 hPa ENE 1.6 km/h 9.7 km/h 71 % 0.0 mm 0 W/m2
02:35 4.1 °C -0.9 °C 1033.4 hPa East 1.6 km/h 9.7 km/h 70 % 0.0 mm 0 W/m2
02:40 3.9 °C -0.8 °C 1033.4 hPa ENE 1.6 km/h 8.0 km/h 71 % 0.0 mm 0 W/m2
02:45 3.8 °C -0.9 °C 1033.4 hPa ENE 1.6 km/h 8.0 km/h 71 % 0.0 mm 0 W/m2
02:50 3.9 °C -0.8 °C 1033.4 hPa East 1.6 km/h 11.3 km/h 71 % 0.0 mm 0 W/m2
02:55 4.2 °C -0.8 °C 1033.4 hPa ENE 1.6 km/h 11.3 km/h 70 % 0.0 mm 0 W/m2
03:00 4.2 °C -0.8 °C 1033.4 hPa ENE 6.4 km/h 11.3 km/h 70 % 0.0 mm 0 W/m2
03:05 4.1 °C -0.9 °C 1033.4 hPa ENE 11.3 km/h 11.3 km/h 70 % 0.0 mm 0 W/m2
03:10 4.2 °C -1.0 °C 1033.4 hPa ENE 11.3 km/h 12.9 km/h 69 % 0.0 mm 0 W/m2
03:15 4.2 °C -1.2 °C 1033.4 hPa ENE 6.4 km/h 12.9 km/h 68 % 0.0 mm 0 W/m2
03:20 4.2 °C -1.2 °C 1033.4 hPa East 4.8 km/h 12.9 km/h 68 % 0.0 mm 0 W/m2
03:25 4.2 °C -1.2 °C 1033.4 hPa ENE 3.2 km/h 12.9 km/h 68 % 0.0 mm 0 W/m2
03:30 4.1 °C -1.3 °C 1033.4 hPa ENE 4.8 km/h 12.9 km/h 68 % 0.0 mm 0 W/m2
03:35 4.1 °C -1.3 °C 1033.4 hPa East 9.7 km/h 12.9 km/h 68 % 0.0 mm 0 W/m2
03:40 4.0 °C -1.4 °C 1033.4 hPa East 3.2 km/h 11.3 km/h 68 % 0.0 mm 0 W/m2
03:45 3.9 °C -1.5 °C 1033.4 hPa East 9.7 km/h 11.3 km/h 68 % 0.0 mm 0 W/m2
03:50 3.7 °C -1.4 °C 1033.4 hPa East 3.2 km/h 14.5 km/h 69 % 0.0 mm 0 W/m2
03:55 3.7 °C -1.3 °C 1033.4 hPa East 4.8 km/h 14.5 km/h 70 % 0.0 mm 0 W/m2
04:00 3.6 °C -1.4 °C 1033.4 hPa ESE 6.4 km/h 12.9 km/h 70 % 0.0 mm 0 W/m2
04:05 3.4 °C -1.6 °C 1033.4 hPa ENE 4.8 km/h 12.9 km/h 70 % 0.0 mm 0 W/m2
04:10 3.3 °C -1.5 °C 1033.4 hPa ENE 3.2 km/h 12.9 km/h 71 % 0.0 mm 0 W/m2
04:15 3.3 °C -1.5 °C 1033.4 hPa East 1.6 km/h 12.9 km/h 71 % 0.0 mm 0 W/m2
04:20 3.2 °C -1.5 °C 1033.4 hPa ENE 3.2 km/h 11.3 km/h 71 % 0.0 mm 0 W/m2
04:25 2.9 °C -1.6 °C 1033.7 hPa Calm   9.7 km/h 72 % 0.0 mm 0 W/m2
04:30 2.6 °C -1.6 °C 1033.7 hPa ENE 4.8 km/h 8.0 km/h 74 % 0.0 mm 0 W/m2
04:35 2.4 °C -1.7 °C 1033.7 hPa NE 1.6 km/h 8.0 km/h 74 % 0.0 mm 0 W/m2
04:40 2.3 °C -1.6 °C 1033.7 hPa ENE 4.8 km/h 6.4 km/h 75 % 0.0 mm 0 W/m2
04:45 2.2 °C -1.8 °C 1033.7 hPa ENE 4.8 km/h 11.3 km/h 75 % 0.0 mm 0 W/m2
04:50 2.2 °C -1.6 °C 1033.7 hPa ENE 3.2 km/h 11.3 km/h 76 % 0.0 mm 0 W/m2
04:55 2.2 °C -1.6 °C 1033.7 hPa ENE 11.3 km/h 11.3 km/h 76 % 0.0 mm 0 W/m2
05:00 2.4 °C -1.5 °C 1033.7 hPa ENE 4.8 km/h 12.9 km/h 75 % 0.0 mm 0 W/m2
05:05 2.6 °C -1.6 °C 1033.7 hPa ENE 8.0 km/h 12.9 km/h 74 % 0.0 mm 0 W/m2
05:10 2.3 °C -1.7 °C 1033.7 hPa ENE 4.8 km/h 11.3 km/h 75 % 0.0 mm 0 W/m2
05:15 2.2 °C -1.8 °C 1033.7 hPa ESE 8.0 km/h 11.3 km/h 75 % 0.0 mm 0 W/m2
05:20 2.2 °C -1.8 °C 1033.7 hPa Calm   12.9 km/h 75 % 0.0 mm 0 W/m2
05:25 2.1 °C -1.7 °C 1033.7 hPa NE 3.2 km/h 12.9 km/h 76 % 0.0 mm 0 W/m2
05:30 2.2 °C -1.8 °C 1033.7 hPa ENE 4.8 km/h 12.9 km/h 75 % 0.0 mm 0 W/m2
05:35 2.1 °C -1.9 °C 1033.7 hPa East 1.6 km/h 12.9 km/h 75 % 0.0 mm 0 W/m2
05:40 2.2 °C -1.8 °C 1033.4 hPa ENE 6.4 km/h 12.9 km/h 75 % 0.0 mm 0 W/m2
05:45 2.3 °C -1.9 °C 1033.4 hPa East 4.8 km/h 12.9 km/h 74 % 0.0 mm 0 W/m2
05:50 2.3 °C -1.9 °C 1033.4 hPa East 8.0 km/h 12.9 km/h 74 % 0.0 mm 0 W/m2
05:55 2.2 °C -1.9 °C 1033.7 hPa ENE 3.2 km/h 11.3 km/h 74 % 0.0 mm 0 W/m2
06:00 2.1 °C -1.9 °C 1033.7 hPa Calm   11.3 km/h 75 % 0.0 mm 0 W/m2
06:05 1.9 °C -2.0 °C 1033.4 hPa ENE 1.6 km/h 11.3 km/h 75 % 0.0 mm 0 W/m2
06:10 1.7 °C -2.1 °C 1033.7 hPa ENE 1.6 km/h 8.0 km/h 76 % 0.0 mm 0 W/m2
06:15 1.5 °C -2.3 °C 1033.7 hPa ENE 3.2 km/h 8.0 km/h 76 % 0.0 mm 0 W/m2
06:20 1.5 °C -2.1 °C 1033.7 hPa East 1.6 km/h 8.0 km/h 77 % 0.0 mm 0 W/m2
06:25 1.6 °C -2.0 °C 1033.7 hPa East 4.8 km/h 8.0 km/h 77 % 0.0 mm 0 W/m2
06:30 1.6 °C -2.0 °C 1033.7 hPa East 6.4 km/h 9.7 km/h 77 % 0.0 mm 0 W/m2
06:35 1.6 °C -2.0 °C 1033.7 hPa East 1.6 km/h 12.9 km/h 77 % 0.0 mm 0 W/m2
06:40 1.8 °C -1.8 °C 1033.7 hPa ENE 4.8 km/h 12.9 km/h 77 % 0.0 mm 0 W/m2
06:45 1.8 °C -2.0 °C 1033.7 hPa East 4.8 km/h 11.3 km/h 76 % 0.0 mm 0 W/m2
06:50 1.8 °C -2.0 °C 1033.7 hPa East 8.0 km/h 11.3 km/h 76 % 0.0 mm 0 W/m2
06:55 1.8 °C -2.0 °C 1033.7 hPa ENE 3.2 km/h 11.3 km/h 76 % 0.0 mm 0 W/m2
07:00 1.8 °C -2.0 °C 1033.7 hPa East 1.6 km/h 8.0 km/h 76 % 0.0 mm 0 W/m2
07:05 1.7 °C -2.1 °C 1033.7 hPa ENE 8.0 km/h 9.7 km/h 76 % 0.0 mm 0 W/m2
07:10 1.8 °C -2.0 °C 1034.1 hPa East 3.2 km/h 9.7 km/h 76 % 0.0 mm 0 W/m2
07:15 1.7 °C -2.1 °C 1034.1 hPa East 4.8 km/h 11.3 km/h 76 % 0.0 mm 5 W/m2
07:20 1.7 °C -2.1 °C 1034.1 hPa East 4.8 km/h 11.3 km/h 76 % 0.0 mm 9 W/m2
07:25 1.7 °C -2.1 °C 1034.1 hPa East 1.6 km/h 9.7 km/h 76 % 0.0 mm 11 W/m2
07:30 1.6 °C -2.0 °C 1034.1 hPa East 4.8 km/h 8.0 km/h 77 % 0.0 mm 14 W/m2
07:35 1.6 °C -2.0 °C 1034.1 hPa ENE 3.2 km/h 8.0 km/h 77 % 0.0 mm 18 W/m2
07:40 1.6 °C -2.0 °C 1034.1 hPa East 6.4 km/h 11.3 km/h 77 % 0.0 mm 19 W/m2
07:45 1.7 °C -1.9 °C 1034.1 hPa ENE 3.2 km/h 11.3 km/h 77 % 0.0 mm 23 W/m2
07:50 1.9 °C -1.7 °C 1034.4 hPa ENE 11.3 km/h 11.3 km/h 77 % 0.0 mm 26 W/m2
07:55 1.9 °C -1.7 °C 1034.4 hPa ENE 4.8 km/h 14.5 km/h 77 % 0.0 mm 28 W/m2
08:00 2.0 °C -1.8 °C 1034.4 hPa NE 4.8 km/h 14.5 km/h 76 % 0.0 mm 30 W/m2
08:05 2.1 °C -1.7 °C 1034.4 hPa ENE 6.4 km/h 14.5 km/h 76 % 0.0 mm 33 W/m2
08:10 2.4 °C -1.4 °C 1034.4 hPa ENE 3.2 km/h 14.5 km/h 76 % 0.0 mm 35 W/m2
08:15 2.6 °C -1.4 °C 1034.8 hPa ESE 8.0 km/h 12.9 km/h 75 % 0.0 mm 37 W/m2
08:20 2.8 °C -1.4 °C 1034.4 hPa ENE 4.8 km/h 14.5 km/h 74 % 0.0 mm 40 W/m2
08:25 2.9 °C -1.4 °C 1034.8 hPa ENE 4.8 km/h 16.1 km/h 73 % 0.0 mm 109 W/m2
08:30 3.2 °C -1.2 °C 1034.8 hPa East 9.7 km/h 16.1 km/h 73 % 0.0 mm 162 W/m2
08:35 3.4 °C -1.3 °C 1034.8 hPa East 8.0 km/h 14.5 km/h 71 % 0.0 mm 179 W/m2
08:40 3.7 °C -1.2 °C 1034.8 hPa East 3.2 km/h 17.7 km/h 70 % 0.0 mm 197 W/m2
08:45 3.9 °C -1.1 °C 1034.8 hPa East 16.1 km/h 20.9 km/h 70 % 0.0 mm 216 W/m2
08:50 4.1 °C -1.1 °C 1034.8 hPa East 1.6 km/h 20.9 km/h 69 % 0.0 mm 234 W/m2
08:55 4.3 °C -0.9 °C 1034.8 hPa NE 6.4 km/h 16.1 km/h 69 % 0.0 mm 250 W/m2
09:00 4.6 °C -0.8 °C 1034.8 hPa East 8.0 km/h 14.5 km/h 68 % 0.0 mm 264 W/m2
09:05 4.7 °C -0.7 °C 1034.8 hPa ESE 9.7 km/h 16.1 km/h 68 % 0.0 mm 281 W/m2
09:10 5.0 °C -0.6 °C 1034.8 hPa ENE 3.2 km/h 17.7 km/h 67 % 0.0 mm 297 W/m2
09:15 5.3 °C -0.8 °C 1034.8 hPa East 11.3 km/h 20.9 km/h 65 % 0.0 mm 302 W/m2
09:20 5.4 °C -0.4 °C 1034.8 hPa ESE 4.8 km/h 20.9 km/h 66 % 0.0 mm 322 W/m2
09:25 5.7 °C -0.4 °C 1034.8 hPa East 4.8 km/h 16.1 km/h 65 % 0.0 mm 346 W/m2
09:30 5.9 °C -0.4 °C 1034.8 hPa East 4.8 km/h 16.1 km/h 64 % 0.0 mm 360 W/m2
09:35 6.2 °C -0.3 °C 1034.8 hPa East 11.3 km/h 17.7 km/h 63 % 0.0 mm 369 W/m2
09:40 6.3 °C -0.5 °C 1034.8 hPa East 3.2 km/h 17.7 km/h 62 % 0.0 mm 392 W/m2
09:45 6.7 °C -0.1 °C 1034.8 hPa Calm   17.7 km/h 62 % 0.0 mm 406 W/m2
09:50 7.1 °C 0.3 °C 1034.8 hPa ESE 3.2 km/h 16.1 km/h 62 % 0.0 mm 424 W/m2
09:55 7.4 °C 0.4 °C 1034.8 hPa NE 4.8 km/h 14.5 km/h 61 % 0.0 mm 438 W/m2
10:00 7.4 °C -0.3 °C 1035.1 hPa ENE 11.3 km/h 20.9 km/h 58 % 0.0 mm 455 W/m2
10:05 7.6 °C -0.1 °C 1034.8 hPa SE 8.0 km/h 20.9 km/h 58 % 0.0 mm 471 W/m2
10:10 7.9 °C 0.2 °C 1034.8 hPa ENE 14.5 km/h 16.1 km/h 58 % 0.0 mm 480 W/m2
10:15 8.1 °C -0.4 °C 1034.8 hPa ESE 11.3 km/h 17.7 km/h 55 % 0.0 mm 494 W/m2
10:20 8.5 °C 0.5 °C 1034.8 hPa East 4.8 km/h 17.7 km/h 57 % 0.0 mm 508 W/m2
10:30 8.7 °C 0.4 °C 1034.8 hPa East 4.8 km/h 19.3 km/h 56 % 0.0 mm 540 W/m2
10:35 8.7 °C 0.9 °C 1034.8 hPa ESE 8.0 km/h 17.7 km/h 58 % 0.0 mm 554 W/m2
10:40 9.2 °C 0.6 °C 1034.8 hPa ENE 6.4 km/h 17.7 km/h 55 % 0.0 mm 570 W/m2
10:45 9.3 °C 0.7 °C 1034.8 hPa ESE 8.0 km/h 17.7 km/h 55 % 0.0 mm 578 W/m2
10:50 9.4 °C 0.1 °C 1034.8 hPa SE 11.3 km/h 20.9 km/h 52 % 0.0 mm 587 W/m2
10:55 9.7 °C 1.3 °C 1034.8 hPa ENE 3.2 km/h 22.5 km/h 56 % 0.0 mm 612 W/m2
11:00 9.8 °C -0.4 °C 1035.1 hPa ENE 17.7 km/h 24.1 km/h 49 % 0.0 mm 610 W/m2
11:05 9.8 °C 0.4 °C 1035.1 hPa ENE 16.1 km/h 24.1 km/h 52 % 0.0 mm 624 W/m2
11:10 10.2 °C 0.5 °C 1035.1 hPa NE 4.8 km/h 22.5 km/h 51 % 0.0 mm 643 W/m2
11:15 10.5 °C 0.2 °C 1034.8 hPa NNE 8.0 km/h 22.5 km/h 49 % 0.0 mm 663 W/m2
11:20 10.9 °C 1.7 °C 1034.8 hPa East 16.1 km/h 27.4 km/h 53 % 0.0 mm 668 W/m2
11:25 10.6 °C -0.8 °C 1034.8 hPa ESE 17.7 km/h 27.4 km/h 45 % 0.0 mm 663 W/m2
11:30 10.7 °C -0.4 °C 1034.8 hPa ENE 12.9 km/h 27.4 km/h 46 % 0.0 mm 691 W/m2
11:35 10.9 °C -0.3 °C 1034.8 hPa East 20.9 km/h 27.4 km/h 46 % 0.0 mm 715 W/m2
11:40 11.1 °C -0.4 °C 1034.8 hPa East 9.7 km/h 27.4 km/h 45 % 0.0 mm 719 W/m2
11:45 11.3 °C -0.9 °C 1034.8 hPa East 20.9 km/h 33.8 km/h 43 % 0.0 mm 728 W/m2
11:50 11.2 °C -0.6 °C 1034.8 hPa ENE 17.7 km/h 33.8 km/h 44 % 0.0 mm 744 W/m2
11:55 11.5 °C -1.3 °C 1034.8 hPa ENE 11.3 km/h 32.2 km/h 41 % 0.0 mm 744 W/m2
12:00 11.3 °C -0.8 °C 1034.8 hPa East 20.9 km/h 32.2 km/h 43 % 0.0 mm 733 W/m2
12:05 11.3 °C -0.5 °C 1034.8 hPa ENE 17.7 km/h 30.6 km/h 44 % 0.0 mm 728 W/m2
12:15 11.8 °C -0.7 °C 1034.8 hPa East 6.4 km/h 24.1 km/h 42 % 0.0 mm 751 W/m2
12:20 11.8 °C -0.4 °C 1034.8 hPa ESE 14.5 km/h 24.1 km/h 43 % 0.0 mm 766 W/m2
12:25 11.9 °C 0.4 °C 1034.4 hPa SE 11.3 km/h 29.0 km/h 45 % 0.0 mm 780 W/m2
12:30 12.1 °C -0.2 °C 1034.4 hPa ESE 6.4 km/h 29.0 km/h 43 % 0.0 mm 766 W/m2
12:35 12.0 °C -0.5 °C 1034.4 hPa ENE 22.5 km/h 25.7 km/h 42 % 0.0 mm 788 W/m2
12:40 12.4 °C 0.5 °C 1034.4 hPa ENE 11.3 km/h 25.7 km/h 44 % 0.0 mm 749 W/m2
12:45 12.3 °C -0.3 °C 1034.4 hPa ENE 16.1 km/h 25.7 km/h 42 % 0.0 mm 752 W/m2
12:50 12.2 °C -0.1 °C 1034.4 hPa ESE 3.2 km/h 25.7 km/h 43 % 0.0 mm 761 W/m2
12:55 12.7 °C -0.3 °C 1034.4 hPa East 11.3 km/h 24.1 km/h 41 % 0.0 mm 751 W/m2
13:00 12.5 °C -0.8 °C 1034.4 hPa ESE 12.9 km/h 25.7 km/h 40 % 0.0 mm 754 W/m2
13:05 12.4 °C -0.8 °C 1034.4 hPa East 14.5 km/h 27.4 km/h 40 % 0.0 mm 773 W/m2
13:10 12.6 °C 0.0 °C 1034.4 hPa East 25.7 km/h 27.4 km/h 42 % 0.0 mm 795 W/m2
13:15 12.8 °C 0.2 °C 1034.4 hPa ESE 4.8 km/h 25.7 km/h 42 % 0.0 mm 796 W/m2
13:20 13.0 °C -0.3 °C 1034.1 hPa ESE 12.9 km/h 25.7 km/h 40 % 0.0 mm 816 W/m2
13:25 13.2 °C -0.2 °C 1034.1 hPa ENE 19.3 km/h 25.7 km/h 40 % 0.0 mm 812 W/m2
13:30 12.9 °C 0.0 °C 1034.1 hPa ENE 8.0 km/h 30.6 km/h 41 % 0.0 mm 782 W/m2
13:35 13.2 °C 0.5 °C 1034.1 hPa NE 16.1 km/h 32.2 km/h 42 % 0.0 mm 810 W/m2
13:40 13.3 °C 0.0 °C 1034.1 hPa ENE 11.3 km/h 32.2 km/h 40 % 0.0 mm 802 W/m2
13:45 13.3 °C 0.7 °C 1034.1 hPa East 9.7 km/h 27.4 km/h 42 % 0.0 mm 837 W/m2
13:50 13.7 °C 0.3 °C 1034.1 hPa ENE 4.8 km/h 27.4 km/h 40 % 0.0 mm 800 W/m2
13:55 14.2 °C 0.4 °C 1033.7 hPa SE 17.7 km/h 27.4 km/h 39 % 0.0 mm 817 W/m2
14:00 13.7 °C 0.0 °C 1033.7 hPa ENE 12.9 km/h 25.7 km/h 39 % 0.0 mm 731 W/m2
14:05 13.8 °C 0.4 °C 1033.7 hPa East 22.5 km/h 25.7 km/h 40 % 0.0 mm 826 W/m2
14:10 13.7 °C 1.4 °C 1033.7 hPa ESE 12.9 km/h 32.2 km/h 43 % 0.0 mm 849 W/m2
14:15 14.1 °C -0.4 °C 1033.7 hPa SSE 16.1 km/h 32.2 km/h 37 % 0.0 mm 844 W/m2
14:20 13.7 °C 0.3 °C 1033.7 hPa East 9.7 km/h 25.7 km/h 40 % 0.0 mm 833 W/m2
14:25 13.8 °C 0.1 °C 1033.7 hPa East 14.5 km/h 25.7 km/h 39 % 0.0 mm 816 W/m2
14:30 14.0 °C 0.2 °C 1033.7 hPa ENE 16.1 km/h 29.0 km/h 39 % 0.0 mm 756 W/m2
14:35 14.0 °C 0.2 °C 1033.7 hPa ENE 12.9 km/h 29.0 km/h 39 % 0.0 mm 784 W/m2
14:40 14.3 °C 0.2 °C 1033.7 hPa NE 11.3 km/h 25.7 km/h 38 % 0.0 mm 793 W/m2
14:45 14.3 °C 1.2 °C 1033.7 hPa East 17.7 km/h 25.7 km/h 41 % 0.0 mm 812 W/m2
14:50 14.1 °C 1.0 °C 1033.7 hPa East 14.5 km/h 29.0 km/h 41 % 0.0 mm 773 W/m2
14:55 13.9 °C 0.1 °C 1033.7 hPa ENE 6.4 km/h 29.0 km/h 39 % 0.0 mm 810 W/m2
15:00 14.1 °C 0.3 °C 1033.4 hPa ENE 3.2 km/h 29.0 km/h 39 % 0.0 mm 807 W/m2
15:05 14.2 °C 0.0 °C 1033.4 hPa ENE 8.0 km/h 25.7 km/h 38 % 0.0 mm 803 W/m2
15:10 14.9 °C 0.3 °C 1033.4 hPa ENE 12.9 km/h 25.7 km/h 37 % 0.0 mm 772 W/m2
15:15 14.6 °C -0.4 °C 1033.4 hPa East 16.1 km/h 25.7 km/h 36 % 0.0 mm 763 W/m2
15:20 14.3 °C -1.0 °C 1033.4 hPa ENE 19.3 km/h 33.8 km/h 35 % 0.0 mm 770 W/m2
15:25 14.4 °C 0.3 °C 1033.1 hPa East 12.9 km/h 33.8 km/h 38 % 0.0 mm 780 W/m2
15:30 14.8 °C 0.6 °C 1033.4 hPa East 6.4 km/h 25.7 km/h 38 % 0.0 mm 779 W/m2
15:35 14.7 °C 0.5 °C 1033.4 hPa NE 14.5 km/h 25.7 km/h 38 % 0.0 mm 775 W/m2
15:40 14.5 °C 0.3 °C 1033.1 hPa East 11.3 km/h 25.7 km/h 38 % 0.0 mm 758 W/m2
15:45 14.9 °C 0.3 °C 1033.1 hPa East 11.3 km/h 29.0 km/h 37 % 0.0 mm 735 W/m2
15:50 14.8 °C 0.2 °C 1033.1 hPa ESE 17.7 km/h 29.0 km/h 37 % 0.0 mm 749 W/m2
15:55 14.4 °C -0.5 °C 1033.1 hPa East 4.8 km/h 29.0 km/h 36 % 0.0 mm 729 W/m2
16:00 14.6 °C -0.4 °C 1033.1 hPa ESE 12.9 km/h 27.4 km/h 36 % 0.0 mm 708 W/m2
16:05 14.9 °C 1.4 °C 1032.7 hPa East 8.0 km/h 27.4 km/h 40 % 0.0 mm 712 W/m2
16:10 14.9 °C 0.7 °C 1032.7 hPa ENE 11.3 km/h 24.1 km/h 38 % 0.0 mm 722 W/m2
16:15 14.7 °C -0.3 °C 1032.7 hPa East 14.5 km/h 30.6 km/h 36 % 0.0 mm 708 W/m2
16:20 14.8 °C 0.9 °C 1032.7 hPa SE 20.9 km/h 30.6 km/h 39 % 0.0 mm 698 W/m2
16:30 14.9 °C 0.4 °C 1032.7 hPa ESE 4.8 km/h 24.1 km/h 37 % 0.0 mm 679 W/m2
16:35 14.8 °C -0.2 °C 1032.7 hPa ESE 11.3 km/h 29.0 km/h 36 % 0.0 mm 659 W/m2
16:40 14.6 °C 0.8 °C 1032.7 hPa ENE 14.5 km/h 29.0 km/h 39 % 0.0 mm 664 W/m2
16:45 14.6 °C 0.1 °C 1032.4 hPa East 12.9 km/h 29.0 km/h 37 % 0.0 mm 629 W/m2
16:50 15.0 °C 1.5 °C 1032.4 hPa East 17.7 km/h 29.0 km/h 40 % 0.0 mm 633 W/m2
16:55 15.2 °C 0.9 °C 1032.4 hPa NE 6.4 km/h 24.1 km/h 38 % 0.0 mm 582 W/m2
17:00 15.1 °C 1.2 °C 1032.4 hPa East 20.9 km/h 27.4 km/h 39 % 0.0 mm 577 W/m2
17:05 14.9 °C 0.4 °C 1032.4 hPa East 16.1 km/h 27.4 km/h 37 % 0.0 mm 564 W/m2
17:10 15.0 °C 1.1 °C 1032.4 hPa SE 12.9 km/h 22.5 km/h 39 % 0.0 mm 578 W/m2
17:15 15.2 °C 0.6 °C 1032.4 hPa East 8.0 km/h 22.5 km/h 37 % 0.0 mm 554 W/m2
17:20 14.9 °C 0.3 °C 1032.4 hPa ENE 6.4 km/h 24.1 km/h 37 % 0.0 mm 550 W/m2
17:25 15.0 °C 1.1 °C 1032.1 hPa ESE 6.4 km/h 24.1 km/h 39 % 0.0 mm 534 W/m2
17:30 14.9 °C 0.4 °C 1032.1 hPa NE 4.8 km/h 22.5 km/h 37 % 0.0 mm 496 W/m2
17:35 14.9 °C -0.1 °C 1032.1 hPa East 20.9 km/h 24.1 km/h 36 % 0.0 mm 476 W/m2
17:40 14.9 °C 0.4 °C 1032.1 hPa ENE 11.3 km/h 25.7 km/h 37 % 0.0 mm 471 W/m2
17:45 14.8 °C 1.0 °C 1032.1 hPa East 12.9 km/h 25.7 km/h 39 % 0.0 mm 499 W/m2
17:50 14.7 °C 0.5 °C 1032.1 hPa ESE 12.9 km/h 25.7 km/h 38 % 0.0 mm 489 W/m2
17:55 14.7 °C 0.5 °C 1032.1 hPa ENE 4.8 km/h 25.7 km/h 38 % 0.0 mm 455 W/m2
18:00 14.7 °C 0.5 °C 1032.1 hPa ENE 8.0 km/h 25.7 km/h 38 % 0.0 mm 439 W/m2
18:05 14.6 °C 0.8 °C 1032.1 hPa NE 19.3 km/h 24.1 km/h 39 % 0.0 mm 438 W/m2
18:10 14.6 °C 1.4 °C 1032.1 hPa ENE 3.2 km/h 24.1 km/h 41 % 0.0 mm 388 W/m2
18:15 14.5 °C 0.7 °C 1031.7 hPa NE 11.3 km/h 24.1 km/h 39 % 0.0 mm 396 W/m2
18:20 14.5 °C 0.0 °C 1032.1 hPa NE 4.8 km/h 24.1 km/h 37 % 0.0 mm 383 W/m2
18:25 14.6 °C 0.7 °C 1032.1 hPa ENE 8.0 km/h 22.5 km/h 39 % 0.0 mm 359 W/m2
18:30 14.2 °C 0.1 °C 1031.7 hPa ENE 6.4 km/h 24.1 km/h 38 % 0.0 mm 352 W/m2
18:35 14.3 °C 0.2 °C 1031.7 hPa ENE 8.0 km/h 24.1 km/h 38 % 0.0 mm 323 W/m2
18:40 14.3 °C 0.1 °C 1031.7 hPa East 14.5 km/h 27.4 km/h 38 % 0.0 mm 313 W/m2
18:45 14.3 °C 0.1 °C 1031.7 hPa ENE 19.3 km/h 27.4 km/h 38 % 0.0 mm 306 W/m2
18:50 14.1 °C 0.0 °C 1031.7 hPa ESE 20.9 km/h 27.4 km/h 38 % 0.0 mm 271 W/m2
18:55 14.1 °C 0.3 °C 1031.7 hPa NNE 11.3 km/h 25.7 km/h 39 % 0.0 mm 258 W/m2
19:00 13.9 °C 0.8 °C 1031.7 hPa ENE 16.1 km/h 25.7 km/h 41 % 0.0 mm 223 W/m2
19:05 13.7 °C 0.3 °C 1031.7 hPa NE 14.5 km/h 27.4 km/h 40 % 0.0 mm 195 W/m2
19:10 13.4 °C 1.1 °C 1031.7 hPa North 8.0 km/h 27.4 km/h 43 % 0.0 mm 193 W/m2
19:15 13.4 °C 0.7 °C 1031.7 hPa East 12.9 km/h 22.5 km/h 42 % 0.0 mm 172 W/m2
19:20 13.3 °C 0.6 °C 1031.7 hPa ENE 11.3 km/h 22.5 km/h 42 % 0.0 mm 98 W/m2
19:25 13.2 °C 1.2 °C 1031.7 hPa East 9.7 km/h 22.5 km/h 44 % 0.0 mm 77 W/m2
19:30 13.2 °C 0.8 °C 1031.7 hPa ENE 14.5 km/h 20.9 km/h 43 % 0.0 mm 70 W/m2
19:35 13.2 °C 0.2 °C 1031.7 hPa ENE 11.3 km/h 27.4 km/h 41 % 0.0 mm 114 W/m2
19:40 13.2 °C 0.5 °C 1031.7 hPa East 6.4 km/h 27.4 km/h 42 % 0.0 mm 65 W/m2
19:45 13.1 °C -0.2 °C 1031.4 hPa East 16.1 km/h 24.1 km/h 40 % 0.0 mm 63 W/m2
19:50 13.0 °C 0.0 °C 1031.4 hPa East 4.8 km/h 24.1 km/h 41 % 0.0 mm 93 W/m2
19:55 12.9 °C 0.6 °C 1031.4 hPa ENE 4.8 km/h 24.1 km/h 43 % 0.0 mm 76 W/m2
20:00 12.7 °C 0.4 °C 1031.4 hPa NE 6.4 km/h 17.7 km/h 43 % 0.0 mm 76 W/m2
20:05 12.6 °C 0.7 °C 1031.4 hPa East 8.0 km/h 19.3 km/h 44 % 0.0 mm 63 W/m2
20:10 12.4 °C 0.5 °C 1031.4 hPa NE 9.7 km/h 19.3 km/h 44 % 0.0 mm 54 W/m2
20:15 12.2 °C 0.3 °C 1031.4 hPa ESE 12.9 km/h 20.9 km/h 44 % 0.0 mm 37 W/m2
20:20 12.1 °C 0.2 °C 1031.4 hPa ENE 12.9 km/h 20.9 km/h 44 % 0.0 mm 33 W/m2
20:25 12.0 °C 0.1 °C 1031.4 hPa NE 4.8 km/h 20.9 km/h 44 % 0.0 mm 32 W/m2
20:30 11.8 °C 0.2 °C 1031.4 hPa ENE 1.6 km/h 20.9 km/h 45 % 0.0 mm 28 W/m2
20:35 11.8 °C 0.2 °C 1031.4 hPa East 12.9 km/h 16.1 km/h 45 % 0.0 mm 25 W/m2
20:40 11.7 °C 0.2 °C 1031.4 hPa ENE 1.6 km/h 16.1 km/h 45 % 0.0 mm 21 W/m2
20:45 11.4 °C 0.2 °C 1031.4 hPa NE 3.2 km/h 17.7 km/h 46 % 0.0 mm 16 W/m2
20:50 11.4 °C 0.5 °C 1031.4 hPa East 8.0 km/h 17.7 km/h 47 % 0.0 mm 12 W/m2
20:55 11.2 °C 0.3 °C 1031.4 hPa ENE 3.2 km/h 17.7 km/h 47 % 0.0 mm 9 W/m2
21:00 10.9 °C 0.6 °C 1031.4 hPa NE 6.4 km/h 16.1 km/h 49 % 0.0 mm 7 W/m2
21:05 10.8 °C 0.5 °C 1031.7 hPa ENE 3.2 km/h 16.1 km/h 49 % 0.0 mm 0 W/m2
21:10 10.7 °C 0.7 °C 1031.7 hPa ENE 1.6 km/h 14.5 km/h 50 % 0.0 mm 0 W/m2
21:15 10.3 °C 0.6 °C 1031.7 hPa East 8.0 km/h 14.5 km/h 51 % 0.0 mm 0 W/m2
21:20 10.0 °C 0.8 °C 1031.4 hPa ENE 8.0 km/h 12.9 km/h 53 % 0.0 mm 0 W/m2
21:25 9.8 °C 0.9 °C 1031.7 hPa NE 1.6 km/h 9.7 km/h 54 % 0.0 mm 0 W/m2
21:30 9.5 °C 1.1 °C 1031.7 hPa ENE 4.8 km/h 9.7 km/h 56 % 0.0 mm 0 W/m2
21:35 9.2 °C 1.1 °C 1031.7 hPa Calm   9.7 km/h 57 % 0.0 mm 0 W/m2
21:40 8.9 °C 1.1 °C 1031.7 hPa ENE 4.8 km/h 8.0 km/h 58 % 0.0 mm 0 W/m2
21:45 8.8 °C 1.0 °C 1031.7 hPa Calm   11.3 km/h 58 % 0.0 mm 0 W/m2
21:55 9.1 °C 1.0 °C 1031.7 hPa ENE 3.2 km/h 9.7 km/h 57 % 0.0 mm 0 W/m2
22:00 8.9 °C 1.1 °C 1031.7 hPa ENE 3.2 km/h 11.3 km/h 58 % 0.0 mm 0 W/m2
22:05 8.9 °C 0.8 °C 1031.7 hPa East 1.6 km/h 12.9 km/h 57 % 0.0 mm 0 W/m2
22:10 8.8 °C 1.0 °C 1031.7 hPa NE 1.6 km/h 12.9 km/h 58 % 0.0 mm 0 W/m2
22:15 8.8 °C 0.8 °C 1032.1 hPa ENE 1.6 km/h 12.9 km/h 57 % 0.0 mm 0 W/m2
22:20 8.8 °C 0.7 °C 1032.1 hPa ENE 4.8 km/h 11.3 km/h 57 % 0.0 mm 0 W/m2
22:25 8.8 °C 1.0 °C 1032.1 hPa ENE 1.6 km/h 12.9 km/h 58 % 0.0 mm 0 W/m2
22:30 8.8 °C 0.7 °C 1032.1 hPa East 9.7 km/h 12.9 km/h 57 % 0.0 mm 0 W/m2
22:35 8.7 °C 0.6 °C 1032.1 hPa ESE 3.2 km/h 11.3 km/h 57 % 0.0 mm 0 W/m2
22:40 8.5 °C 0.5 °C 1032.1 hPa ENE 4.8 km/h 11.3 km/h 57 % 0.0 mm 0 W/m2
22:45 8.6 °C 0.3 °C 1032.1 hPa ENE 6.4 km/h 11.3 km/h 56 % 0.0 mm 0 W/m2
22:50 8.6 °C 0.3 °C 1032.1 hPa Calm   9.7 km/h 56 % 0.0 mm 0 W/m2
22:55 8.4 °C 0.4 °C 1032.1 hPa East 4.8 km/h 11.3 km/h 57 % 0.0 mm 0 W/m2
23:00 8.3 °C 0.2 °C 1032.1 hPa ESE 4.8 km/h 11.3 km/h 57 % 0.0 mm 0 W/m2
23:05 8.2 °C 0.1 °C 1032.1 hPa East 6.4 km/h 11.3 km/h 57 % 0.0 mm 0 W/m2
23:10 8.0 °C 0.2 °C 1032.1 hPa East 8.0 km/h 12.9 km/h 58 % 0.0 mm 0 W/m2
23:15 8.1 °C 0.3 °C 1032.1 hPa East 8.0 km/h 12.9 km/h 58 % 0.0 mm 0 W/m2
23:20 8.1 °C 0.3 °C 1032.1 hPa NE 1.6 km/h 12.9 km/h 58 % 0.0 mm 0 W/m2
23:25 7.9 °C 0.2 °C 1032.1 hPa East 9.7 km/h 11.3 km/h 58 % 0.0 mm 0 W/m2
23:30 7.9 °C 0.1 °C 1032.1 hPa ENE 3.2 km/h 12.9 km/h 58 % 0.0 mm 0 W/m2
23:35 7.8 °C 0.3 °C 1032.1 hPa East 1.6 km/h 12.9 km/h 59 % 0.0 mm 0 W/m2
23:40 7.8 °C 0.3 °C 1032.4 hPa East 3.2 km/h 9.7 km/h 59 % 0.0 mm 0 W/m2
23:45 7.7 °C 0.2 °C 1032.1 hPa East 1.6 km/h 9.7 km/h 59 % 0.0 mm 0 W/m2
23:50 7.4 °C 0.2 °C 1032.1 hPa East 1.6 km/h 9.7 km/h 60 % 0.0 mm 0 W/m2
23:55 7.2 °C 0.2 °C 1032.4 hPa East 9.7 km/h 9.7 km/h 61 % 0.0 mm 0 W/m2
Avec l'autorisation de Weather Underground - 1.75 mb